Time;durP1;ratioP1;P1;durP2;ratioP2;P2;SDS_P1;SDS_P2;PMS_P1;PMS_P2;Temp;Humidity;BMP_temperature;BMP_pressure;BME280_temperature;BME280_humidity;BME280_pressure;Samples;Min_cycle;Max_cycle;Signal;HPM_P1;HPM_P2
2022/07/01 00:01:49;;;;;;;1.67;1.20;;;23.90;64.30;;;;;;5049776;27;43459;-59
2022/07/01 00:04:17;;;;;;;1.90;1.42;;;23.90;64.30;;;;;;5041940;27;43604;-59
2022/07/01 00:06:44;;;;;;;2.28;1.23;;;23.90;64.30;;;;;;5039316;27;44196;-59
2022/07/01 00:09:11;;;;;;;2.03;1.15;;;23.90;64.30;;;;;;5040595;28;43351;-59
2022/07/01 00:11:39;;;;;;;2.78;1.20;;;23.80;64.20;;;;;;5039562;28;43479;-58
2022/07/01 00:14:06;;;;;;;2.28;1.25;;;23.80;64.30;;;;;;5039630;28;43451;-59
2022/07/01 00:16:34;;;;;;;2.15;1.17;;;23.80;64.30;;;;;;5039973;28;43833;-59
2022/07/01 00:19:01;;;;;;;1.58;1.05;;;23.80;64.20;;;;;;5040494;27;44002;-59
2022/07/01 00:21:29;;;;;;;2.05;1.30;;;23.80;64.30;;;;;;5038947;28;43467;-59
2022/07/01 00:23:56;;;;;;;1.98;1.05;;;23.80;64.20;;;;;;5040432;27;44234;-59
2022/07/01 00:26:24;;;;;;;2.22;1.20;;;23.80;64.20;;;;;;5039552;28;46081;-59
2022/07/01 00:28:52;;;;;;;2.67;1.20;;;23.80;64.30;;;;;;5039856;28;43375;-59
2022/07/01 00:31:19;;;;;;;1.48;0.95;;;23.80;64.30;;;;;;5038153;28;43445;-59
2022/07/01 00:33:46;;;;;;;1.55;1.02;;;23.80;64.30;;;;;;5039335;28;43502;-59
2022/07/01 00:36:14;;;;;;;1.48;0.80;;;23.80;64.30;;;;;;5039806;27;44984;-59
2022/07/01 00:38:41;;;;;;;1.55;1.05;;;23.80;64.30;;;;;;5039853;28;43451;-59
2022/07/01 00:41:08;;;;;;;2.30;1.35;;;23.80;64.30;;;;;;5038491;28;43396;-59
2022/07/01 00:43:38;;;;;;;1.63;1.30;;;23.80;64.30;;;;;;5040166;28;43569;-59
2022/07/01 00:46:20;;;;;;;0.85;0.82;;;23.70;64.20;;;;;;5039791;28;43922;-59
2022/07/01 00:48:50;;;;;;;2.15;1.02;;;23.70;64.20;;;;;;5038735;28;43428;-59
2022/07/01 00:51:19;;;;;;;1.38;1.10;;;23.70;64.20;;;;;;5038139;28;43439;-59
2022/07/01 00:53:47;;;;;;;0.70;0.70;;;23.70;64.20;;;;;;5039470;27;43464;-59
2022/07/01 00:56:15;;;;;;;1.65;0.85;;;23.70;64.20;;;;;;5038945;28;45307;-59
2022/07/01 00:58:43;;;;;;;1.25;0.90;;;23.70;64.90;;;;;;5038876;28;43461;-59
2022/07/01 01:01:10;;;;;;;1.50;1.00;;;23.70;64.20;;;;;;5039759;27;43445;-59
2022/07/01 01:03:38;;;;;;;1.58;1.08;;;23.70;64.20;;;;;;5038745;27;43979;-59
2022/07/01 01:06:05;;;;;;;1.63;0.90;;;23.70;64.20;;;;;;5039579;28;44655;-59
2022/07/01 01:08:33;;;;;;;1.83;1.02;;;23.70;64.20;;;;;;5039024;27;43465;-59
2022/07/01 01:11:01;;;;;;;1.50;0.90;;;23.60;64.10;;;;;;5039253;27;43522;-59
2022/07/01 01:13:28;;;;;;;1.23;0.90;;;23.60;64.20;;;;;;5039575;28;43523;-59
2022/07/01 01:15:56;;;;;;;1.40;1.10;;;23.60;64.20;;;;;;5039033;28;43894;-59
2022/07/01 01:18:23;;;;;;;0.85;0.70;;;23.60;64.20;;;;;;5038757;27;43807;-59
2022/07/01 01:20:53;;;;;;;0.82;0.60;;;23.60;64.20;;;;;;5039364;28;43445;-59
2022/07/01 01:23:20;;;;;;;1.15;0.90;;;23.60;64.20;;;;;;5038925;28;43461;-59
2022/07/01 01:25:48;;;;;;;1.42;0.88;;;23.60;64.20;;;;;;5038728;28;44777;-59
2022/07/01 01:28:15;;;;;;;1.08;0.73;;;23.60;64.20;;;;;;5039202;27;44027;-59
2022/07/01 01:30:43;;;;;;;1.33;0.80;;;23.60;64.50;;;;;;5039320;28;43417;-59
2022/07/01 01:33:11;;;;;;;0.90;0.80;;;23.60;64.20;;;;;;5039386;28;43610;-59
2022/07/01 01:35:40;;;;;;;0.70;0.70;;;23.60;64.20;;;;;;5039166;27;44741;-59
2022/07/01 01:38:08;;;;;;;0.60;0.60;;;23.60;64.30;;;;;;5038205;27;43789;-59
2022/07/01 01:40:35;;;;;;;0.80;0.70;;;23.60;64.20;;;;;;5038731;28;43516;-59
2022/07/01 01:43:02;;;;;;;1.55;0.95;;;23.50;64.20;;;;;;5028686;28;43529;-59
2022/07/01 01:45:30;;;;;;;0.60;0.60;;;23.50;64.20;;;;;;5038543;28;44819;-59
2022/07/01 01:47:57;;;;;;;0.95;0.88;;;23.50;64.20;;;;;;5038262;27;43513;-59
2022/07/01 01:50:24;;;;;;;1.27;0.57;;;23.50;64.20;;;;;;5039490;27;43473;-59
2022/07/01 01:52:52;;;;;;;0.68;0.68;;;23.50;64.20;;;;;;5034669;27;43509;-59
2022/07/01 01:55:19;;;;;;;1.23;0.80;;;23.50;64.20;;;;;;5039035;27;45076;-59
2022/07/01 01:57:46;;;;;;;0.80;0.60;;;23.50;64.20;;;;;;5037884;27;43434;-59
2022/07/01 02:00:14;;;;;;;0.88;0.73;;;23.50;64.80;;;;;;5048742;27;43542;-59
2022/07/01 02:02:41;;;;;;;0.80;0.80;;;23.50;64.20;;;;;;5038533;27;43623;-59
2022/07/01 02:05:11;;;;;;;1.38;0.77;;;23.50;64.20;;;;;;5038517;27;43804;-59
2022/07/01 02:07:39;;;;;;;0.90;0.70;;;23.50;64.20;;;;;;5037932;27;43482;-59
2022/07/01 02:10:07;;;;;;;1.17;0.70;;;23.50;64.20;;;;;;5107231;27;43441;-59
2022/07/01 02:12:35;;;;;;;1.25;0.63;;;23.50;64.20;;;;;;5038194;28;44176;-59
2022/07/01 02:15:02;;;;;;;0.60;0.52;;;23.40;64.20;;;;;;5038936;27;44086;-59
2022/07/01 02:17:29;;;;;;;0.70;0.70;;;23.40;64.20;;;;;;5037773;28;43453;-59
2022/07/01 02:19:57;;;;;;;0.65;0.55;;;23.40;64.20;;;;;;5038513;27;43551;-59
2022/07/01 02:22:24;;;;;;;0.93;0.60;;;23.50;64.20;;;;;;5038701;27;43563;-59
2022/07/01 02:24:51;;;;;;;1.27;0.75;;;23.40;64.20;;;;;;5038736;27;44441;-59
2022/07/01 02:27:19;;;;;;;0.77;0.43;;;23.40;64.20;;;;;;5037689;27;43410;-59
2022/07/01 02:29:46;;;;;;;0.82;0.77;;;23.40;64.10;;;;;;5038229;28;43445;-59
2022/07/01 02:32:13;;;;;;;1.30;0.68;;;23.40;64.20;;;;;;5038649;28;43608;-59
2022/07/01 02:34:41;;;;;;;0.65;0.65;;;23.40;64.10;;;;;;5038265;27;44120;-59
2022/07/01 02:37:08;;;;;;;0.75;0.75;;;23.40;64.20;;;;;;5037861;28;43808;-59
2022/07/01 02:39:36;;;;;;;1.23;0.55;;;23.40;64.20;;;;;;5039125;28;43554;-59
2022/07/01 02:44:49;;;;;;;0.60;0.60;;;23.40;64.30;;;;;;5037151;28;43903;-59
2022/07/01 02:47:17;;;;;;;0.80;0.50;;;23.40;64.30;;;;;;5037010;27;43535;-59
2022/07/01 02:49:44;;;;;;;0.40;0.40;;;23.40;64.30;;;;;;5038232;28;44025;-59
2022/07/01 02:52:11;;;;;;;0.50;0.50;;;23.30;64.20;;;;;;5038951;27;43615;-59
2022/07/01 02:54:39;;;;;;;1.20;0.63;;;23.30;64.20;;;;;;5037787;28;44726;-59
2022/07/01 02:57:07;;;;;;;0.52;0.50;;;23.30;64.20;;;;;;5035682;28;44194;-59
2022/07/01 02:59:34;;;;;;;0.50;0.50;;;23.30;64.20;;;;;;5038336;27;43394;-59
2022/07/01 03:02:02;;;;;;;0.45;0.30;;;23.30;64.20;;;;;;5037542;27;43558;-59
2022/07/01 03:04:30;;;;;;;0.40;0.40;;;23.30;64.20;;;;;;5037917;28;45027;-59
2022/07/01 03:06:58;;;;;;;0.90;0.50;;;23.20;64.20;;;;;;5034775;27;43993;-59
2022/07/01 03:09:25;;;;;;;0.65;0.45;;;23.30;64.20;;;;;;5038243;27;43465;-59
2022/07/01 03:11:53;;;;;;;0.50;0.50;;;23.30;64.30;;;;;;5037504;28;43624;-59
2022/07/01 03:14:21;;;;;;;0.68;0.52;;;23.30;64.20;;;;;;5038223;27;43982;-59
2022/07/01 03:16:48;;;;;;;0.82;0.50;;;23.20;64.10;;;;;;5036697;28;43516;-59
2022/07/01 03:19:16;;;;;;;0.73;0.50;;;23.20;64.20;;;;;;5037848;28;44056;-59
2022/07/01 03:21:43;;;;;;;0.47;0.47;;;23.20;64.20;;;;;;5037501;27;43968;-59
2022/07/01 03:24:11;;;;;;;1.58;0.50;;;23.20;64.10;;;;;;5037767;27;44000;-59
2022/07/01 03:26:38;;;;;;;0.60;0.60;;;23.20;64.10;;;;;;5036143;28;43566;-59
2022/07/01 03:29:05;;;;;;;1.00;0.40;;;23.20;64.10;;;;;;5037580;28;43525;-59
2022/07/01 03:31:33;;;;;;;2.33;0.68;;;23.20;64.10;;;;;;5037270;28;43493;-59
2022/07/01 03:34:01;;;;;;;0.47;0.40;;;23.20;64.10;;;;;;5037283;27;44076;-59
2022/07/01 03:36:28;;;;;;;0.30;0.30;;;23.20;64.10;;;;;;5036539;28;44048;-59
2022/07/01 03:38:55;;;;;;;0.60;0.47;;;23.20;64.10;;;;;;5119112;27;43518;-59
2022/07/01 03:41:22;;;;;;;0.90;0.43;;;23.20;64.10;;;;;;5038093;28;43611;-59
2022/07/01 03:43:50;;;;;;;0.45;0.45;;;23.20;64.10;;;;;;5036748;28;45130;-59
2022/07/01 03:46:17;;;;;;;0.40;0.40;;;23.20;64.20;;;;;;5034755;27;43567;-59
2022/07/01 03:48:44;;;;;;;0.30;0.30;;;23.20;64.10;;;;;;5037229;28;43429;-59
2022/07/01 03:51:12;;;;;;;0.35;0.30;;;23.20;64.10;;;;;;5037399;28;43486;-59
2022/07/01 03:56:25;;;;;;;0.45;0.45;;;23.20;64.10;;;;;;5037089;28;44905;-59
2022/07/01 03:58:53;;;;;;;0.60;0.30;;;23.10;64.00;;;;;;5037164;27;43468;-59
2022/07/01 04:01:20;;;;;;;1.00;0.35;;;23.20;64.10;;;;;;5043878;27;43605;-59
2022/07/01 04:03:48;;;;;;;0.50;0.50;;;23.10;64.00;;;;;;5036534;27;43830;-59
2022/07/01 04:06:16;;;;;;;0.43;0.40;;;23.10;64.10;;;;;;5037067;27;43715;-59
2022/07/01 04:08:44;;;;;;;0.47;0.40;;;23.10;64.10;;;;;;5037852;27;43401;-59
2022/07/01 04:11:11;;;;;;;0.52;0.50;;;23.10;64.10;;;;;;5050746;27;43587;-59
2022/07/01 04:13:39;;;;;;;0.60;0.40;;;23.10;64.10;;;;;;5035931;28;44867;-59
2022/07/01 04:16:07;;;;;;;0.40;0.40;;;23.10;64.10;;;;;;5036534;28;44096;-59
2022/07/01 04:18:35;;;;;;;0.38;0.30;;;23.10;64.20;;;;;;5036832;27;43480;-59
2022/07/01 04:23:48;;;;;;;0.60;0.57;;;23.10;64.10;;;;;;5035220;28;45033;-59
2022/07/01 04:26:16;;;;;;;0.80;0.50;;;23.10;64.20;;;;;;5036291;28;44001;-59
2022/07/01 04:29:04;;;;;;;0.32;0.32;;;23.10;64.10;;;;;;5036899;28;43458;-59
2022/07/01 04:31:31;;;;;;;0.45;0.43;;;23.10;64.10;;;;;;5036604;27;43635;-59
2022/07/01 04:33:59;;;;;;;0.40;0.40;;;23.00;64.10;;;;;;5036794;27;44207;-59
2022/07/01 04:36:26;;;;;;;0.63;0.40;;;23.00;64.10;;;;;;5036629;27;44186;-59
2022/07/01 04:38:54;;;;;;;1.25;0.45;;;23.00;64.10;;;;;;5037672;27;43452;-59
2022/07/01 04:44:07;;;;;;;0.40;0.40;;;23.00;64.10;;;;;;5040416;27;44134;-59
2022/07/01 04:46:35;;;;;;;0.45;0.30;;;23.00;64.00;;;;;;5039462;27;44136;-59
2022/07/01 04:49:03;;;;;;;0.30;0.30;;;23.00;64.00;;;;;;5039012;27;43508;-59
2022/07/01 04:51:30;;;;;;;0.40;0.40;;;23.10;64.10;;;;;;5040343;28;43624;-59
2022/07/01 04:53:58;;;;;;;0.32;0.32;;;23.00;64.10;;;;;;5038981;27;44207;-59
2022/07/01 04:56:28;;;;;;;0.40;0.40;;;23.00;64.10;;;;;;5039888;27;44145;-59
2022/07/01 04:58:56;;;;;;;0.30;0.30;;;23.00;64.10;;;;;;5038257;27;43485;-59
2022/07/01 05:01:24;;;;;;;0.52;0.52;;;23.00;64.10;;;;;;5038679;28;43592;-59
2022/07/01 05:03:52;;;;;;;0.88;0.30;;;23.00;64.10;;;;;;5039577;27;45163;-59
2022/07/01 05:06:19;;;;;;;0.40;0.40;;;23.00;64.10;;;;;;5039940;28;43726;-59
2022/07/01 05:08:47;;;;;;;0.35;0.35;;;23.00;64.10;;;;;;5038833;27;43474;-59
2022/07/01 05:11:14;;;;;;;0.47;0.40;;;22.90;64.10;;;;;;5039278;28;43474;-59
2022/07/01 05:13:41;;;;;;;0.40;0.40;;;22.90;64.10;;;;;;5039324;28;45140;-59
2022/07/01 05:16:09;;;;;;;0.30;0.30;;;22.90;64.10;;;;;;5039214;27;43911;-59
2022/07/01 05:24:11;;;;;;;0.30;0.30;;;22.90;64.10;;;;;;5039549;28;44099;-59
2022/07/01 05:26:38;;;;;;;0.60;0.60;;;22.90;64.10;;;;;;5038774;28;43518;-59
2022/07/01 05:29:06;;;;;;;0.43;0.38;;;22.90;64.10;;;;;;5039366;27;43461;-59
2022/07/01 05:31:33;;;;;;;0.30;0.30;;;22.90;64.10;;;;;;5039450;28;43474;-58
2022/07/01 05:34:00;;;;;;;0.40;0.40;;;22.90;64.10;;;;;;5038899;28;44077;-59
2022/07/01 05:36:31;;;;;;;0.50;0.50;;;22.90;64.10;;;;;;5036609;27;43465;-59
2022/07/01 05:38:58;;;;;;;0.35;0.35;;;22.90;64.10;;;;;;5039371;27;43462;-59
2022/07/01 05:41:26;;;;;;;0.35;0.35;;;22.90;64.10;;;;;;5039149;28;43533;-59
2022/07/01 05:43:53;;;;;;;1.17;0.40;;;22.90;64.10;;;;;;5038072;28;43887;-59
2022/07/01 05:46:21;;;;;;;0.40;0.40;;;22.90;64.10;;;;;;5039254;28;43552;-59
2022/07/01 05:48:48;;;;;;;0.40;0.40;;;22.90;64.10;;;;;;5039111;27;44014;-59
2022/07/01 05:51:15;;;;;;;0.50;0.30;;;22.90;64.10;;;;;;5038661;27;43612;-59
2022/07/01 05:53:43;;;;;;;0.40;0.40;;;22.90;64.10;;;;;;5038643;27;44047;-59
2022/07/01 05:56:10;;;;;;;0.77;0.30;;;22.80;64.00;;;;;;5038955;28;43802;-59
2022/07/01 05:58:38;;;;;;;0.45;0.45;;;22.80;64.00;;;;;;5038317;28;43477;-59
2022/07/01 06:01:05;;;;;;;0.50;0.22;;;22.80;64.10;;;;;;5044479;27;43596;-59
2022/07/01 06:03:37;;;;;;;0.45;0.43;;;22.80;64.10;;;;;;5038220;28;43861;-59
2022/07/01 06:06:04;;;;;;;0.68;0.68;;;22.80;64.10;;;;;;5038856;27;43404;-59
2022/07/01 06:08:33;;;;;;;0.50;0.50;;;22.80;64.10;;;;;;5038370;28;44128;-59
2022/07/01 06:11:00;;;;;;;0.30;0.30;;;22.80;64.10;;;;;;5038411;28;43627;-59
2022/07/01 06:13:29;;;;;;;0.60;0.30;;;22.80;64.10;;;;;;5038281;28;44983;-59
2022/07/01 06:15:59;;;;;;;0.40;0.40;;;22.80;64.10;;;;;;5038430;28;43429;-59
2022/07/01 06:18:27;;;;;;;0.38;0.38;;;22.80;64.10;;;;;;5038605;27;43386;-59
2022/07/01 06:20:54;;;;;;;0.25;0.25;;;22.80;64.20;;;;;;5038719;28;43504;-59
2022/07/01 06:23:22;;;;;;;0.32;0.32;;;22.80;64.10;;;;;;5036314;28;44952;-59
2022/07/01 06:25:49;;;;;;;0.43;0.40;;;22.80;64.10;;;;;;5038110;27;43402;-59
2022/07/01 06:28:17;;;;;;;0.32;0.32;;;22.80;64.10;;;;;;5038942;27;43453;-59
2022/07/01 06:30:45;;;;;;;0.60;0.40;;;22.80;64.20;;;;;;5039306;27;43619;-59
2022/07/01 06:33:13;;;;;;;0.40;0.40;;;22.80;64.20;;;;;;5037991;28;44028;-59
2022/07/01 06:35:40;;;;;;;0.57;0.50;;;22.80;64.20;;;;;;5106881;27;46374;-59
2022/07/01 06:38:08;;;;;;;0.40;0.40;;;22.70;64.20;;;;;;5038234;28;43470;-59
2022/07/01 06:40:35;;;;;;;0.40;0.40;;;22.70;64.20;;;;;;5038077;28;43554;-59
2022/07/01 06:43:03;;;;;;;0.65;0.32;;;22.70;64.20;;;;;;5037932;28;43883;-59
2022/07/01 06:45:31;;;;;;;0.50;0.50;;;22.70;64.20;;;;;;5038440;28;43963;-59
2022/07/01 06:47:59;;;;;;;1.00;0.40;;;22.70;64.20;;;;;;5037832;28;43476;-59
2022/07/01 06:50:26;;;;;;;0.50;0.50;;;22.70;64.30;;;;;;5038702;28;43576;-59
2022/07/01 06:52:54;;;;;;;0.55;0.52;;;22.70;64.20;;;;;;5038026;28;45383;-59
2022/07/01 06:55:21;;;;;;;0.60;0.60;;;22.70;64.30;;;;;;5038006;27;43427;-59
2022/07/01 06:57:48;;;;;;;0.75;0.52;;;22.70;64.30;;;;;;5037213;28;43442;-59
2022/07/01 07:00:16;;;;;;;0.40;0.40;;;22.70;64.30;;;;;;5038310;27;43702;-59
2022/07/01 07:02:43;;;;;;;2.03;0.40;;;22.70;64.30;;;;;;5036169;28;44977;-59
2022/07/01 07:05:10;;;;;;;0.38;0.38;;;22.70;64.30;;;;;;5038260;28;43499;-59
2022/07/01 07:07:38;;;;;;;1.48;0.88;;;22.70;64.30;;;;;;5037898;28;43565;-60
2022/07/01 07:10:06;;;;;;;0.70;0.70;;;22.70;64.30;;;;;;5038032;28;43604;-59
2022/07/01 07:12:34;;;;;;;0.43;0.40;;;22.70;64.30;;;;;;5037291;28;45103;-59
2022/07/01 07:15:01;;;;;;;0.63;0.55;;;22.70;64.30;;;;;;5037534;28;43489;-59
2022/07/01 07:17:28;;;;;;;1.27;0.60;;;22.70;64.40;;;;;;5038052;27;43671;-59
2022/07/01 07:19:56;;;;;;;1.23;0.60;;;22.70;64.40;;;;;;5038156;28;43568;-60
2022/07/01 07:22:23;;;;;;;0.85;0.55;;;22.70;64.30;;;;;;5037053;28;44190;-59
2022/07/01 07:24:50;;;;;;;0.68;0.68;;;22.70;64.30;;;;;;5038535;27;43981;-59
2022/07/01 07:27:18;;;;;;;0.52;0.50;;;22.70;64.30;;;;;;5038115;27;43425;-59
2022/07/01 07:29:45;;;;;;;0.50;0.50;;;22.70;64.30;;;;;;5031488;28;43628;-59
2022/07/01 07:32:12;;;;;;;0.32;0.32;;;22.70;64.30;;;;;;5105091;27;45090;-59
2022/07/01 07:34:40;;;;;;;0.55;0.55;;;22.70;64.30;;;;;;5037111;28;43978;-59
2022/07/01 07:37:08;;;;;;;1.58;0.50;;;22.70;64.20;;;;;;5037281;27;43447;-59
2022/07/01 07:39:35;;;;;;;2.25;0.60;;;22.70;64.30;;;;;;5037640;28;43616;-60
2022/07/01 07:42:04;;;;;;;0.65;0.63;;;22.70;64.30;;;;;;5036460;28;45182;-59
2022/07/01 07:44:31;;;;;;;0.80;0.60;;;22.70;64.30;;;;;;5037532;27;44019;-59
2022/07/01 07:46:59;;;;;;;0.90;0.73;;;22.70;64.30;;;;;;5035322;27;43487;-60
2022/07/01 07:49:27;;;;;;;0.77;0.77;;;22.70;64.30;;;;;;5029464;28;43739;-59
2022/07/01 07:51:55;;;;;;;0.80;0.70;;;22.70;64.20;;;;;;5033359;27;44078;-59
2022/07/01 07:54:22;;;;;;;0.70;0.70;;;22.70;64.20;;;;;;5032776;27;44012;-59
2022/07/01 07:56:49;;;;;;;1.38;0.82;;;22.70;64.20;;;;;;5028170;28;43556;-60
2022/07/01 07:59:17;;;;;;;0.85;0.75;;;22.70;64.20;;;;;;5028596;28;43715;-59
2022/07/01 08:01:44;;;;;;;0.95;0.85;;;22.70;64.10;;;;;;5034632;27;43805;-59
2022/07/01 08:04:11;;;;;;;0.90;0.60;;;22.70;64.10;;;;;;5029637;28;43991;-59
2022/07/01 08:06:40;;;;;;;0.88;0.70;;;22.80;64.10;;;;;;5030295;28;43497;-59
2022/07/01 08:09:07;;;;;;;0.95;0.80;;;22.70;64.10;;;;;;5032627;27;43478;-59
2022/07/01 08:11:35;;;;;;;1.65;0.95;;;22.80;64.20;;;;;;5030612;27;44220;-59
2022/07/01 08:14:02;;;;;;;0.82;0.73;;;22.80;64.10;;;;;;5034243;28;44893;-60
2022/07/01 08:16:30;;;;;;;1.23;0.90;;;22.80;64.10;;;;;;5033978;28;43449;-59
2022/07/01 08:18:57;;;;;;;1.00;0.90;;;22.80;64.10;;;;;;5032797;28;43498;-59
2022/07/01 08:21:24;;;;;;;0.70;0.70;;;22.80;64.10;;;;;;5034624;28;45420;-59
2022/07/01 08:23:52;;;;;;;1.45;0.95;;;22.80;64.10;;;;;;5031781;27;43520;-59
2022/07/01 08:26:19;;;;;;;1.00;0.90;;;22.80;64.10;;;;;;5032324;27;43997;-59
2022/07/01 08:28:47;;;;;;;1.35;1.25;;;22.80;64.20;;;;;;5072191;27;43580;-60
2022/07/01 08:31:14;;;;;;;0.88;0.80;;;22.80;64.10;;;;;;5030495;28;44933;-59
2022/07/01 08:33:42;;;;;;;0.93;0.93;;;22.80;64.20;;;;;;5032343;28;43445;-59
2022/07/01 08:36:11;;;;;;;1.77;0.82;;;22.80;64.20;;;;;;5064592;27;43571;-60
2022/07/01 08:38:38;;;;;;;0.93;0.93;;;22.70;64.10;;;;;;5030196;28;43550;-59
2022/07/01 08:41:05;;;;;;;1.75;1.00;;;22.70;64.10;;;;;;5031913;28;44175;-59
2022/07/01 08:43:34;;;;;;;1.38;1.10;;;22.80;64.20;;;;;;5032215;27;43438;-59
2022/07/01 08:46:02;;;;;;;2.25;1.10;;;22.70;64.10;;;;;;5035105;27;43605;-59
2022/07/01 08:48:30;;;;;;;1.50;1.30;;;22.70;64.10;;;;;;5038632;28;43552;-59
2022/07/01 08:50:58;;;;;;;0.98;0.73;;;22.70;64.10;;;;;;5037019;27;45115;-59
2022/07/01 08:53:25;;;;;;;1.15;1.00;;;22.70;64.70;;;;;;5032479;28;43975;-59
2022/07/01 08:58:38;;;;;;;1.10;1.00;;;22.70;64.00;;;;;;5033692;28;43541;-59
2022/07/01 09:01:21;;;;;;;2.38;1.20;;;22.70;64.30;;;;;;5041776;27;45051;-59
2022/07/01 09:03:54;;;;;;;2.58;1.30;;;22.70;64.10;;;;;;5036045;28;43485;-59
2022/07/01 09:06:28;;;;;;;1.17;1.00;;;22.80;64.00;;;;;;5034803;28;43484;-59
2022/07/01 09:09:12;;;;;;;1.50;1.10;;;22.80;63.90;;;;;;5031962;28;43572;-59
2022/07/01 09:11:45;;;;;;;1.30;1.20;;;22.90;64.20;;;;;;5030204;28;44970;-58
2022/07/01 09:14:15;;;;;;;1.58;1.20;;;22.80;64.10;;;;;;5033016;27;43491;-59
2022/07/01 09:16:49;;;;;;;1.88;1.35;;;22.90;64.10;;;;;;5035775;28;43533;-58
2022/07/01 09:19:21;;;;;;;2.47;1.73;;;22.90;64.10;;;;;;5032454;28;43584;-59
2022/07/01 09:21:51;;;;;;;2.45;1.45;;;22.90;64.30;;;;;;5033308;28;44061;-59
2022/07/01 09:24:47;;;;;;;1.85;1.52;;;22.90;64.10;;;;;;5031068;28;44125;-59
2022/07/01 09:27:18;;;;;;;4.97;1.58;;;22.90;64.10;;;;;;5013956;28;43575;-59
2022/07/01 09:29:52;;;;;;;2.42;1.42;;;22.90;64.10;;;;;;5030663;28;43585;-59
2022/07/01 09:32:21;;;;;;;2.58;1.60;;;22.90;64.10;;;;;;5030937;28;44465;-58
2022/07/01 09:34:53;;;;;;;2.65;1.40;;;22.90;64.10;;;;;;5033621;28;43850;-59
2022/07/01 09:37:24;;;;;;;1.45;1.30;;;22.90;64.10;;;;;;5030105;27;43433;-58
2022/07/01 09:39:56;;;;;;;1.67;1.17;;;22.90;64.00;;;;;;5087145;27;43532;-59
2022/07/01 09:42:25;;;;;;;1.58;1.30;;;22.90;64.00;;;;;;5033774;27;44170;-59
2022/07/01 09:45:02;;;;;;;1.30;1.20;;;22.90;63.90;;;;;;5041069;27;43483;-58
2022/07/01 09:47:32;;;;;;;1.33;1.20;;;22.90;63.90;;;;;;5031968;27;43433;-58
2022/07/01 09:50:02;;;;;;;1.70;1.23;;;22.90;63.90;;;;;;5032715;27;43640;-58
2022/07/01 09:52:30;;;;;;;1.83;1.27;;;22.90;64.50;;;;;;5032990;27;44969;-58
2022/07/01 09:55:03;;;;;;;2.65;1.30;;;22.90;63.80;;;;;;5028774;27;44052;-59
2022/07/01 09:57:31;;;;;;;1.95;1.33;;;22.90;64.40;;;;;;5027799;28;43475;-59
2022/07/01 09:59:58;;;;;;;1.48;1.30;;;22.90;63.80;;;;;;5032224;28;43621;-59
2022/07/01 10:02:30;;;;;;;1.33;1.20;;;22.90;63.70;;;;;;5031770;27;44962;-60
2022/07/01 10:05:10;;;;;;;1.25;1.15;;;23.00;63.70;;;;;;5027350;28;43854;-59
2022/07/01 10:07:49;;;;;;;2.22;1.50;;;23.00;63.70;;;;;;5030690;28;43414;-59
2022/07/01 10:10:44;;;;;;;1.27;1.00;;;23.00;63.60;;;;;;5042835;27;43624;-59
2022/07/01 10:13:16;;;;;;;1.17;1.08;;;23.00;63.70;;;;;;5034587;27;44202;-59
2022/07/01 10:15:48;;;;;;;1.75;0.90;;;23.00;63.60;;;;;;5079755;27;43506;-59
2022/07/01 10:18:21;;;;;;;0.85;0.85;;;23.00;63.60;;;;;;5084871;27;43473;-59
2022/07/01 10:20:51;;;;;;;1.52;1.20;;;23.00;63.60;;;;;;5031352;27;43439;-59
2022/07/01 10:23:43;;;;;;;1.73;1.20;;;23.10;63.70;;;;;;5034041;27;43793;-59
2022/07/01 10:26:12;;;;;;;1.30;1.20;;;23.10;63.60;;;;;;5032087;28;43488;-59
2022/07/01 10:28:49;;;;;;;1.95;1.02;;;23.10;63.70;;;;;;5031173;27;43511;-59
2022/07/01 10:31:18;;;;;;;1.60;1.25;;;23.10;63.80;;;;;;5033805;28;43571;-59
2022/07/01 10:33:51;;;;;;;1.55;1.08;;;23.10;63.60;;;;;;5028622;28;44041;-59
2022/07/01 10:36:33;;;;;;;1.42;1.30;;;23.10;63.60;;;;;;5041732;27;43532;-59
2022/07/01 10:39:06;;;;;;;1.20;1.10;;;23.10;63.50;;;;;;5052636;27;43471;-59
2022/07/01 10:41:52;;;;;;;1.25;0.98;;;23.10;63.50;;;;;;5041034;27;43612;-58
2022/07/01 10:44:58;;;;;;;2.80;1.15;;;23.20;63.40;;;;;;5047608;27;44084;-59
2022/07/01 10:47:26;;;;;;;2.53;1.45;;;23.10;63.40;;;;;;5090021;27;43628;-59
2022/07/01 10:49:59;;;;;;;2.85;1.10;;;23.20;63.50;;;;;;5031168;27;43538;-59
2022/07/01 10:52:26;;;;;;;1.48;1.25;;;23.20;64.10;;;;;;5033722;28;43624;-59
2022/07/01 10:54:56;;;;;;;2.28;1.27;;;23.20;63.50;;;;;;5034596;28;43762;-59
2022/07/01 10:57:34;;;;;;;1.65;1.25;;;23.20;63.40;;;;;;5026921;27;44081;-59
2022/07/01 11:00:01;;;;;;;1.83;1.02;;;23.20;63.40;;;;;;5032945;28;43495;-59
2022/07/01 11:02:33;;;;;;;1.33;1.23;;;23.20;63.30;;;;;;5034847;28;43618;-60
2022/07/01 11:05:07;;;;;;;1.90;1.30;;;23.20;63.40;;;;;;5030557;27;44967;-59
2022/07/01 11:07:37;;;;;;;1.52;1.42;;;23.20;63.40;;;;;;5034552;28;43501;-59
2022/07/01 11:10:10;;;;;;;1.30;1.20;;;23.20;63.40;;;;;;5032603;28;43438;-59
2022/07/01 11:12:37;;;;;;;1.65;1.17;;;23.20;63.50;;;;;;5029186;28;43973;-59
2022/07/01 11:15:06;;;;;;;1.10;1.08;;;23.20;63.60;;;;;;5035320;28;44057;-59
2022/07/01 11:17:34;;;;;;;1.30;1.20;;;23.20;63.50;;;;;;5093103;27;44000;-59
2022/07/01 11:20:03;;;;;;;2.65;1.13;;;23.20;63.40;;;;;;5032295;28;43476;-59
2022/07/01 11:22:33;;;;;;;1.30;1.10;;;23.20;63.50;;;;;;5032488;28;43572;-59
2022/07/01 11:25:03;;;;;;;1.27;1.17;;;23.20;63.50;;;;;;5028293;28;44209;-59
2022/07/01 11:27:31;;;;;;;1.58;1.10;;;23.20;63.50;;;;;;5031043;27;44104;-59
2022/07/01 11:30:03;;;;;;;1.77;1.30;;;23.20;63.40;;;;;;5031420;27;43490;-60
2022/07/01 11:32:34;;;;;;;1.77;1.02;;;23.20;63.50;;;;;;5029610;28;43569;-59
2022/07/01 11:35:03;;;;;;;1.23;0.98;;;23.20;63.50;;;;;;5026650;27;44865;-59
2022/07/01 11:40:18;;;;;;;1.75;0.93;;;23.20;63.50;;;;;;5035309;28;43450;-59
2022/07/01 11:42:46;;;;;;;0.98;0.90;;;23.20;63.60;;;;;;5106120;27;43576;-59
2022/07/01 11:45:24;;;;;;;1.30;1.10;;;23.20;63.60;;;;;;5046909;27;44970;-62
2022/07/01 11:47:52;;;;;;;1.85;1.20;;;23.20;63.60;;;;;;5037171;27;43675;-59
2022/07/01 11:50:20;;;;;;;2.55;1.33;;;23.20;63.50;;;;;;5038969;28;43452;-59
2022/07/01 11:52:47;;;;;;;1.55;1.00;;;23.20;63.40;;;;;;5031159;27;43659;-59
2022/07/01 11:55:19;;;;;;;1.38;1.00;;;23.30;63.40;;;;;;5029923;27;44035;-59
2022/07/01 11:58:05;;;;;;;2.35;1.20;;;23.30;63.40;;;;;;5032212;27;43507;-59
2022/07/01 12:00:33;;;;;;;1.35;0.98;;;23.30;63.30;;;;;;5033300;28;43487;-59
2022/07/01 12:03:01;;;;;;;0.85;0.80;;;23.30;63.30;;;;;;5030247;28;43635;-59
2022/07/01 12:05:29;;;;;;;0.90;0.90;;;23.30;63.20;;;;;;5031272;27;43817;-59
2022/07/01 12:08:04;;;;;;;0.98;0.90;;;23.30;63.30;;;;;;5030763;27;43998;-59
2022/07/01 12:10:32;;;;;;;1.13;1.00;;;23.30;63.20;;;;;;5032959;28;43493;-59
2022/07/01 12:13:00;;;;;;;1.00;0.95;;;23.40;63.20;;;;;;5031002;28;43596;-59
2022/07/01 12:15:28;;;;;;;1.45;1.20;;;23.40;63.20;;;;;;5031439;27;44924;-59
2022/07/01 12:18:06;;;;;;;0.93;0.93;;;23.40;63.20;;;;;;5067184;27;43469;-59
2022/07/01 12:20:33;;;;;;;1.20;1.10;;;23.40;63.10;;;;;;5030342;28;43501;-59
2022/07/01 12:23:13;;;;;;;2.95;1.25;;;23.40;63.20;;;;;;5032931;27;43530;-59
2022/07/01 12:25:49;;;;;;;1.07;0.97;;;23.40;63.20;;;;;;4126226;27;10001045;-59
2022/07/01 12:28:39;;;;;;;1.20;1.05;;;23.40;63.30;;;;;;4990872;28;43492;-59
2022/07/01 12:31:08;;;;;;;1.05;1.02;;;23.30;63.30;;;;;;4995191;28;45018;-59
2022/07/01 12:33:37;;;;;;;0.80;0.80;;;23.30;63.40;;;;;;4989929;28;43581;-59
2022/07/01 12:36:06;;;;;;;1.23;1.00;;;23.40;63.50;;;;;;4990504;28;44082;-59
2022/07/01 12:38:34;;;;;;;2.13;1.20;;;23.40;63.50;;;;;;4992714;28;43486;-59
2022/07/01 12:41:02;;;;;;;0.85;0.82;;;23.40;63.50;;;;;;4994133;28;44672;-59
2022/07/01 12:43:37;;;;;;;1.15;0.80;;;23.40;63.40;;;;;;4993111;28;44053;-59
2022/07/01 12:46:04;;;;;;;1.70;1.00;;;23.40;63.50;;;;;;4990059;28;43561;-59
2022/07/01 12:48:48;;;;;;;1.77;1.02;;;23.50;63.50;;;;;;4995000;28;43619;-59
2022/07/01 12:51:16;;;;;;;1.85;1.00;;;23.50;63.40;;;;;;4994973;28;45160;-59
2022/07/01 12:53:44;;;;;;;2.40;0.90;;;23.50;63.40;;;;;;4991209;28;43742;-59
2022/07/01 12:56:26;;;;;;;2.80;1.00;;;23.50;63.30;;;;;;4991734;28;43502;-59
2022/07/01 12:58:54;;;;;;;1.25;0.93;;;23.50;63.30;;;;;;4989749;28;43570;-59
2022/07/01 13:01:24;;;;;;;0.80;0.80;;;23.50;63.30;;;;;;4986687;28;44974;-59
2022/07/01 13:03:52;;;;;;;1.08;1.00;;;23.50;63.20;;;;;;4989438;28;43463;-59
2022/07/01 13:06:20;;;;;;;0.75;0.75;;;23.50;63.20;;;;;;4982318;28;43483;-59
2022/07/01 13:08:48;;;;;;;1.05;0.90;;;23.50;63.10;;;;;;4989595;28;43639;-59
2022/07/01 13:11:15;;;;;;;0.95;0.82;;;23.50;63.10;;;;;;4994064;28;44914;-59
2022/07/01 13:13:43;;;;;;;1.85;0.93;;;23.60;63.20;;;;;;4995620;28;43476;-59
2022/07/01 13:16:10;;;;;;;1.20;0.80;;;23.60;63.10;;;;;;4998152;28;43440;-59
2022/07/01 13:18:37;;;;;;;1.08;0.98;;;23.60;63.00;;;;;;4984976;28;43673;-59